Latest Weather Observations for Lombadina

IDW60801

Issued at 10:43 pm WST Friday 23 April 2021 (issued every 10 minutes, with the page automatically refreshed every 10 minutes)

About weather observations | Map of weather stations | Latest weather observations for WA | Other Formats
Station Details ID: 503016 Name: LOMBADINA AIRSTRIP Lat: -16.52 Lon: 122.92 Height: 42.0 m
Data from the previous 72 hours. | See also: Recent months for locations in Western Australia
Date/Time
WST
Temp
°C
App
Temp
°C
Dew
Point
°C
Rel
Hum
%
Delta-T
°C
Wind Press
QNH
hPa
Press
MSL
hPa
Rain since
9am
mm
Dir  Spd
km/h
Gust
km/h
Spd
kts
Gust
kts
23/10:30pm 24.5 25.1 14.3 53 6.0 SSW 4 7 2 4 1013.0 1012.7 0.0
23/10:00pm 25.2 25.4 14.3 50 6.5 SSE 6 7 3 4 1013.2 1012.9 0.0
23/09:30pm 23.8 24.8 15.3 59 5.1 SSW 4 6 2 3 1013.1 1012.8 0.0
23/09:00pm 23.7 24.6 15.2 59 5.1 S 4 7 2 4 1013.2 1012.9 0.0
23/08:30pm 25.4 26.9 15.7 55 5.9 SSW 2 4 1 2 1012.9 1012.6 0.0
23/08:00pm 25.4 27.2 15.4 54 6.1 CALM 0 2 0 1 1012.8 1012.5 0.0
23/07:30pm 25.3 26.5 15.0 53 6.2 SE 2 4 1 2 1012.4 1012.1 0.0
23/07:00pm 25.6 27.0 16.5 57 5.6 SE 4 6 2 3 1011.9 1011.6 0.0
23/06:30pm 25.7 27.5 17.4 60 5.2 SE 4 6 2 3 1011.7 1011.4 0.0
23/06:00pm 26.8 28.8 17.8 57 5.7 SE 4 6 2 3 1011.4 1011.1 0.0
23/05:30pm 28.5 30.3 18.3 54 6.5 SE 6 7 3 4 1011.1 1010.8 0.0
23/05:00pm 30.1 32.7 18.5 49 7.5 SE 2 6 1 3 1010.8 1010.5 0.0
23/04:30pm 30.8 32.6 18.8 48 7.8 SE 7 11 4 6 1010.6 1010.3 0.0
23/04:00pm 31.8 32.4 15.7 37 10.0 E 7 15 4 8 1010.3 1010.0 0.0
23/03:30pm 32.0 32.7 17.1 41 9.5 E 9 13 5 7 1010.0 1009.7 0.0
23/03:00pm 32.4 32.2 15.8 36 10.4 E 11 15 6 8 1010.0 1009.7 0.0
23/02:30pm 32.2 33.0 17.3 41 9.5 E 9 17 5 9 1010.0 1009.7 0.0
23/02:00pm 32.1 32.2 16.4 39 9.9 E 11 20 6 11 1010.1 1009.8 0.0
23/01:30pm 31.6 31.6 17.1 41 9.2 E 13 20 7 11 1010.3 1010.0 0.0
23/01:00pm 30.9 30.0 16.9 43 8.9 E 17 22 9 12 1010.5 1010.2 0.0
23/12:30pm 30.7 30.0 16.3 42 9.0 ESE 15 32 8 17 1010.9 1010.6 0.0
23/12:00pm 30.2 29.2 15.5 41 9.1 ESE 15 26 8 14 1011.3 1011.0 0.0
23/11:30am 30.3 29.2 15.2 40 9.3 ESE 15 26 8 14 1011.7 1011.4 0.0
23/11:00am 30.3 28.5 14.4 38 9.7 ESE 17 26 9 14 1012.0 1011.7 0.0
23/10:30am 29.8 28.6 15.1 40 9.0 ESE 15 28 8 15 1012.5 1012.2 0.0
23/10:00am 29.4 27.3 14.8 41 8.9 ESE 19 33 10 18 1012.8 1012.5 0.0
23/09:30am 28.6 26.7 15.2 44 8.2 ESE 19 30 10 16 1012.8 1012.5 0.0
23/09:00am 27.6 26.3 15.9 49 7.2 ESE 17 26 9 14 1012.7 1012.4 0.0
23/08:30am 26.5 25.5 15.5 50 6.7 ESE 15 22 8 12 1012.5 1012.2 0.0
23/08:00am 24.9 23.5 13.5 49 6.7 SE 13 24 7 13 1012.4 1012.1 0.0
23/07:30am 24.2 21.9 11.9 46 7.0 SE 15 24 8 13 1012.3 1012.0 0.0
23/07:00am 23.6 21.7 10.6 44 7.2 SE 11 20 6 11 1012.1 1011.8 0.0
23/06:30am 23.0 21.3 9.8 43 7.2 SE 9 15 5 8 1011.8 1011.5 0.0
23/06:00am 22.6 21.2 9.4 43 7.1 ESE 7 11 4 6 1011.5 1011.2 0.0
23/05:30am 22.9 21.4 9.0 41 7.5 SE 7 15 4 8 1011.0 1010.7 0.0
23/05:00am 22.7 20.9 8.0 39 7.7 SE 7 13 4 7 1010.6 1010.3 0.0
23/04:30am 23.5 21.5 7.2 35 8.5 SE 7 15 4 8 1010.5 1010.2 0.0
23/04:00am 23.7 21.7 6.9 34 8.7 SE 7 13 4 7 1010.5 1010.2 0.0
23/03:30am 24.1 21.9 6.4 32 9.1 SSE 7 15 4 8 1010.5 1010.2 0.0
23/03:00am 24.8 21.6 5.1 28 10.0 SSE 11 17 6 9 1010.6 1010.3 0.0
23/02:30am 25.3 22.6 5.5 28 10.1 SSE 9 17 5 9 1010.8 1010.5 0.0
23/02:00am 25.4 22.8 6.1 29 10.0 SE 9 17 5 9 1011.0 1010.7 0.0
23/01:30am 25.7 23.4 5.8 28 10.2 SE 7 15 4 8 1011.1 1010.8 0.0
23/01:00am 25.8 23.4 5.4 27 10.4 SE 7 13 4 7 1011.3 1011.0 0.0
23/12:30am 26.0 23.7 5.6 27 10.5 SE 7 15 4 8 1011.5 1011.2 0.0
23/12:00am 26.6 24.3 5.5 26 10.9 SSE 7 13 4 7 1011.7 1011.4 0.0
 
Date/Time
WST
Temp
°C
App
Temp
°C
Dew
Point
°C
Rel
Hum
%
Delta-T
°C
Wind Press
QNH
hPa
Press
MSL
hPa
Rain since
9am
mm
Dir  Spd
km/h
Gust
km/h
Spd
kts
Gust
kts
22/11:30pm 26.5 24.2 5.5 26 10.8 SSE 7 11 4 6 1012.1 1011.8 0.0
22/11:00pm 27.1 24.7 5.4 25 11.2 SSE 7 13 4 7 1012.2 1011.9 0.0
22/10:30pm 26.8 24.5 5.7 26 10.9 SSE 7 13 4 7 1012.3 1012.0 0.0
22/10:00pm 27.3 25.1 6.1 26 11.1 SSE 7 15 4 8 1012.4 1012.1 0.0
22/09:30pm 27.4 24.8 6.2 26 11.1 SSE 9 15 5 8 1012.3 1012.0 0.0
22/09:00pm 27.7 25.2 6.5 26 11.2 SSE 9 15 5 8 1012.3 1012.0 0.0
22/08:30pm 27.7 25.3 7.0 27 11.0 SSE 9 15 5 8 1012.3 1012.0 0.0
22/08:00pm 27.7 25.4 7.5 28 10.8 SSE 9 15 5 8 1012.0 1011.7 0.0
22/07:30pm 27.8 26.2 8.6 30 10.5 SSE 7 13 4 7 1011.8 1011.5 0.0
22/07:00pm 28.0 26.5 9.3 31 10.4 SSE 7 15 4 8 1011.5 1011.2 0.0
22/06:30pm 28.6 27.1 9.3 30 10.7 SSE 7 13 4 7 1011.1 1010.8 0.0
22/06:00pm 28.8 27.3 9.0 29 11.0 SSE 7 11 4 6 1010.8 1010.5 0.0
22/05:30pm 29.5 27.8 8.5 27 11.6 SSE 7 11 4 6 1010.6 1010.3 0.0
22/05:00pm 30.4 28.8 8.7 26 12.1 SE 7 11 4 6 1010.4 1010.1 0.0
22/04:30pm 31.3 29.2 8.3 24 12.7 SE 9 17 5 9 1010.0 1009.7 0.0
22/04:00pm 31.0 29.0 8.7 25 12.4 SE 9 19 5 10 1009.8 1009.5 0.0
22/03:30pm 31.5 29.1 8.5 24 12.8 SE 11 20 6 11 1009.8 1009.5 0.0
22/03:00pm 31.6 28.7 8.0 23 13.1 SE 13 24 7 13 1009.8 1009.5 0.0
22/02:30pm 32.4 29.1 8.0 22 13.5 SE 15 24 8 13 1009.9 1009.6 0.0
22/02:00pm 31.9 28.3 8.2 23 13.2 SE 17 28 9 15 1010.2 1009.9 0.0
22/01:30pm 31.7 28.1 9.8 26 12.5 SE 19 35 10 19 1010.4 1010.1 0.0
22/01:00pm 31.4 28.0 10.7 28 11.9 SE 19 32 10 17 1010.8 1010.5 0.0
22/12:30pm 31.0 27.8 11.4 30 11.4 SE 19 30 10 16 1011.2 1010.9 0.0
22/12:00pm 30.8 27.9 12.2 32 11.0 SE 19 33 10 18 1011.5 1011.2 0.0
22/11:30am 30.3 27.5 12.7 34 10.4 SE 19 33 10 18 1012.0 1011.7 0.0
22/11:00am 30.0 27.2 13.3 36 10.0 SE 20 35 11 19 1012.4 1012.1 0.0
22/10:30am 29.5 26.3 12.0 34 10.2 SE 20 35 11 19 1012.8 1012.5 0.0
22/10:00am 29.2 25.7 12.2 35 9.9 SE 22 35 12 19 1013.1 1012.8 0.0
22/09:30am 28.1 26.0 14.7 44 8.1 SE 19 30 10 16 1013.3 1013.0 0.0
22/09:00am 27.3 25.3 14.0 44 7.9 SE 17 32 9 17 1013.3 1013.0 0.0
22/08:30am 26.9 25.6 13.6 44 7.9 SE 13 26 7 14 1013.3 1013.0 0.0
22/08:00am 26.3 24.5 13.4 45 7.6 SE 15 30 8 16 1013.2 1012.9 0.0
22/07:30am 25.2 23.5 12.4 45 7.4 SE 13 24 7 13 1013.0 1012.7 0.0
22/07:00am 23.8 22.4 10.8 44 7.2 SE 9 19 5 10 1012.9 1012.6 0.0
22/06:30am 22.9 20.9 10.0 44 7.0 SE 11 19 6 10 1012.7 1012.4 0.0
22/06:00am 22.8 20.9 9.2 42 7.3 SE 9 17 5 9 1012.3 1012.0 0.0
22/05:30am 23.5 21.0 8.4 38 8.0 SE 11 19 6 10 1012.1 1011.8 0.0
22/05:00am 23.7 21.1 7.8 36 8.4 SE 11 20 6 11 1011.9 1011.6 0.0
22/04:30am 24.3 21.5 7.0 33 9.0 SE 11 19 6 10 1011.6 1011.3 0.0
22/04:00am 24.6 21.7 6.4 31 9.4 SE 11 19 6 10 1011.5 1011.2 0.0
22/03:30am 24.9 21.8 5.7 29 9.8 SE 11 22 6 12 1011.4 1011.1 0.0
22/03:00am 24.9 22.2 5.7 29 9.8 SE 9 15 5 8 1011.3 1011.0 0.0
22/02:30am 25.2 22.9 5.9 29 9.9 SE 7 17 4 9 1011.4 1011.1 0.0
22/02:00am 25.9 23.7 6.0 28 10.3 SSE 7 15 4 8 1011.5 1011.2 0.0
22/01:30am 26.4 23.8 5.9 27 10.6 SSE 9 17 5 9 1011.5 1011.2 0.0
22/01:00am 26.3 23.6 5.8 27 10.6 SSE 9 17 5 9 1011.5 1011.2 0.0
22/12:30am 26.6 24.4 6.1 27 10.7 SSE 7 15 4 8 1011.9 1011.6 0.0
22/12:00am 27.3 24.7 6.1 26 11.1 S 9 19 5 10 1012.1 1011.8 0.0
 
Date/Time
WST
Temp
°C
App
Temp
°C
Dew
Point
°C
Rel
Hum
%
Delta-T
°C
Wind Press
QNH
hPa
Press
MSL
hPa
Rain since
9am
mm
Dir  Spd
km/h
Gust
km/h
Spd
kts
Gust
kts
21/11:30pm 26.6 24.1 6.6 28 10.5 SSE 9 17 5 9 1012.5 1012.2 0.0
21/11:00pm 26.7 24.2 6.7 28 10.5 SSE 9 15 5 8 1012.6 1012.3 0.0
21/10:30pm 26.8 24.4 6.8 28 10.5 SSE 9 17 5 9 1012.6 1012.3 0.0
21/10:00pm 27.0 25.0 6.9 28 10.6 SSE 7 13 4 7 1012.8 1012.5 0.0
21/09:30pm 26.7 24.8 7.7 30 10.2 SSE 7 13 4 7 1013.0 1012.7 0.0
21/09:00pm 26.4 24.9 8.4 32 9.7 SSE 6 7 3 4 1013.0 1012.7 0.0
21/08:30pm 27.0 25.8 9.4 33 9.7 SSE 6 9 3 5 1012.9 1012.6 0.0
21/08:00pm 26.8 26.0 10.9 37 9.0 S 6 9 3 5 1012.7 1012.4 0.0
21/07:30pm 25.5 25.4 12.0 43 7.7 S 4 7 2 4 1012.4 1012.1 0.0
21/07:00pm 24.9 25.4 14.1 51 6.4 S 4 7 2 4 1012.2 1011.9 0.0
21/06:30pm 25.9 26.4 14.1 48 7.0 S 4 7 2 4 1011.9 1011.6 0.0
21/06:00pm 26.8 27.5 14.5 46 7.4 SSE 4 6 2 3 1011.6 1011.3 0.0
21/05:30pm 29.2 29.9 14.6 41 8.9 SE 4 6 2 3 1011.4 1011.1 0.0
21/05:00pm 31.1 31.1 12.5 32 11.0 SE 4 7 2 4 1011.1 1010.8 0.0
21/04:30pm 31.9 31.1 11.7 29 11.8 ESE 7 11 4 6 1010.9 1010.6 0.0
21/04:00pm 32.3 30.2 9.8 25 12.8 SE 11 17 6 9 1010.7 1010.4 0.0
21/03:30pm 32.5 30.8 9.9 25 12.9 ESE 9 19 5 10 1010.7 1010.4 0.0
21/03:00pm 32.4 30.5 10.4 26 12.7 ESE 11 20 6 11 1010.7 1010.4 0.0
21/02:30pm 32.4 29.1 8.0 22 13.5 SE 15 22 8 12 1010.8 1010.5 0.0
21/02:00pm 32.6 29.5 7.4 21 13.9 SE 13 24 7 13 1011.1 1010.8 0.0
21/01:30pm 32.8 30.7 9.6 24 13.2 ESE 11 20 6 11 1011.5 1011.2 0.0
21/01:00pm 32.1 29.6 9.6 25 12.8 ESE 13 24 7 13 1011.8 1011.5 0.0
21/12:30pm 31.8 29.5 10.5 27 12.3 ESE 13 20 7 11 1012.1 1011.8 0.0
21/12:00pm 31.3 29.7 11.7 30 11.5 ESE 11 22 6 12 1012.4 1012.1 0.0
21/11:30am 31.0 29.0 11.4 30 11.4 SE 13 20 7 11 1012.9 1012.6 0.0
21/11:00am 30.9 29.6 13.7 35 10.4 ESE 13 20 7 11 1013.4 1013.1 0.0
21/10:30am 30.1 29.8 15.4 41 9.1 SE 11 17 6 9 1013.8 1013.5 0.0
21/10:00am 29.3 29.8 18.4 51 7.0 SE 13 22 7 12 1014.1 1013.8 0.0
21/09:30am 28.6 28.9 17.8 52 6.9 ESE 13 20 7 11 1014.0 1013.7 0.0
21/09:00am 28.0 27.5 16.0 48 7.4 ESE 13 20 7 11 1014.0 1013.7 0.0
21/08:30am 27.3 27.1 14.7 46 7.6 ESE 9 17 5 9 1013.7 1013.4 0.0
21/08:00am 26.2 25.3 12.6 43 7.9 ESE 9 17 5 9 1013.5 1013.2 0.0
21/07:30am 25.0 23.6 10.8 41 8.0 ESE 9 15 5 8 1013.2 1012.9 0.0
21/07:00am 24.3 22.9 9.5 39 8.1 SE 7 11 4 6 1012.9 1012.6 0.0
21/06:30am 22.5 21.5 10.3 46 6.7 SE 6 11 3 6 1012.6 1012.3 0.0
21/06:00am 23.0 21.9 10.1 44 7.1 SE 6 9 3 5 1012.3 1012.0 0.0
21/05:30am 22.8 22.0 10.9 47 6.6 S 6 11 3 6 1012.0 1011.7 0.0
21/05:00am 23.2 22.5 11.3 47 6.7 S 6 13 3 7 1011.8 1011.5 0.0
21/04:30am 24.5 22.9 11.5 44 7.3 S 11 19 6 10 1011.7 1011.4 0.0
21/04:00am 23.7 23.1 12.4 49 6.5 S 7 11 4 6 1011.4 1011.1 0.0
21/03:30am 23.9 23.4 12.5 49 6.5 S 7 13 4 7 1011.3 1011.0 0.0
21/03:00am 22.9 23.0 13.9 57 5.3 SSW 6 13 3 7 1011.2 1010.9 0.0
21/02:30am 22.4 22.6 14.3 60 4.8 SSW 6 11 3 6 1011.2 1010.9 0.0
21/02:00am 22.4 22.7 14.5 61 4.7 SSW 6 9 3 5 1011.2 1010.9 0.0
21/01:30am 22.9 23.2 14.5 59 5.0 SSW 6 7 3 4 1011.4 1011.1 0.0
21/01:00am 23.5 23.6 13.9 55 5.6 SSW 6 9 3 5 1011.6 1011.3 0.0
21/12:30am 23.6 23.7 14.0 55 5.6 SSW 6 11 3 6 1012.0 1011.7 0.0
21/12:00am 23.4 23.4 14.1 56 5.5 SW 7 13 4 7 1012.4 1012.1 0.0
 
Date/Time
WST
Temp
°C
App
Temp
°C
Dew
Point
°C
Rel
Hum
%
Delta-T
°C
Wind Press
QNH
hPa
Press
MSL
hPa
Rain since
9am
mm
Dir  Spd
km/h
Gust
km/h
Spd
kts
Gust
kts
20/11:30pm 23.1 23.3 14.7 59 5.0 SW 7 9 4 5 1012.6 1012.3 0.0
20/11:00pm 22.8 23.3 15.1 62 4.6 SSW 6 9 3 5 1012.8 1012.5 0.0

Other formats

Comma delimited format used in spreadsheet applications
http://www.bom.gov.au/fwo/IDW60801/IDW60801.99206.axf

JavaScript Object Notation format (JSON) in row-major order
http://www.bom.gov.au/fwo/IDW60801/IDW60801.99206.json

Data quality

Most of these data are generated automatically and are frequently updated. Quality checks on data are not normally performed. It is possible for incorrect values to appear. Refer to information at About Latest Weather Observations and please check the disclaimer before using these data.